Time;durP1;ratioP1;P1;durP2;ratioP2;P2;SDS_P1;SDS_P2;PMS_P1;PMS_P2;Temp;Humidity;BMP_temperature;BMP_pressure;BME280_temperature;BME280_humidity;BME280_pressure;Samples;Min_cycle;Max_cycle;Signal;HPM_P1;HPM_P2
2022/06/13 00:00:33;;;;;;;10.73;5.20;;;;;;;14.81;64.70;101954.13;5013989;28;20202;-70
2022/06/13 00:02:59;;;;;;;12.60;5.63;;;;;;;14.79;64.54;101942.63;5015141;28;20068;-70
2022/06/13 00:05:25;;;;;;;11.88;5.75;;;;;;;14.66;64.89;101946.09;5031876;28;20465;-70
2022/06/13 00:07:51;;;;;;;9.60;5.32;;;;;;;14.74;64.72;101945.63;5030907;28;20042;-70
2022/06/13 00:10:17;;;;;;;9.70;5.35;;;;;;;14.71;64.73;101949.34;4997278;28;20033;-70
2022/06/13 00:12:43;;;;;;;10.35;6.00;;;;;;;14.62;65.08;101939.22;5014290;28;20477;-70
2022/06/13 00:15:12;;;;;;;13.10;5.45;;;;;;;14.60;65.23;101941.13;5032277;28;20449;-69
2022/06/13 00:17:37;;;;;;;11.38;5.75;;;;;;;14.65;64.95;101941.69;5008740;28;20022;-70
2022/06/13 00:20:05;;;;;;;8.15;5.05;;;;;;;14.50;65.59;101935.47;5030830;28;20091;-70
2022/06/13 00:22:31;;;;;;;8.35;5.25;;;;;;;14.60;65.35;101937.59;5028561;28;20045;-70
2022/06/13 00:24:57;;;;;;;11.48;5.75;;;;;;;14.45;65.57;101921.50;5031582;28;20029;-70
2022/06/13 00:27:23;;;;;;;11.82;5.78;;;;;;;14.42;66.10;101920.81;5013200;28;20033;-70
2022/06/13 00:29:49;;;;;;;11.82;5.65;;;;;;;14.44;66.10;101925.13;5029652;28;20035;-69
2022/06/13 00:32:15;;;;;;;18.70;5.95;;;;;;;14.49;66.05;101932.84;5030154;28;20479;-70
2022/06/13 00:34:41;;;;;;;12.40;5.75;;;;;;;14.46;66.37;101925.88;5028978;28;20037;-70
2022/06/13 00:37:07;;;;;;;12.77;5.82;;;;;;;14.53;66.40;101924.59;5031279;28;20029;-70
2022/06/13 00:39:33;;;;;;;10.35;5.60;;;;;;;14.53;66.69;101927.25;5031623;28;20391;-70
2022/06/13 00:41:58;;;;;;;11.48;6.32;;;;;;;14.47;66.94;101918.69;5012633;28;20073;-70
2022/06/13 00:44:23;;;;;;;14.48;6.03;;;;;;;14.48;66.91;101917.75;5012233;28;20036;-70
2022/06/13 00:46:50;;;;;;;10.32;6.85;;;;;;;14.36;67.25;101916.72;5031391;28;20053;-70
2022/06/13 00:49:38;;;;;;;14.32;5.88;;;;;;;14.46;67.27;101923.19;5013622;28;20037;-70
2022/06/13 00:52:27;;;;;;;8.40;5.88;;;;;;;14.51;66.70;101915.78;5031535;28;20036;-70
2022/06/13 00:54:54;;;;;;;11.48;5.72;;;;;;;14.36;67.55;101902.47;5030553;28;20384;-70
2022/06/13 00:57:23;;;;;;;14.70;6.63;;;;;;;14.47;67.03;101916.03;5030711;28;20031;-70
2022/06/13 00:59:54;;;;;;;16.48;6.85;;;;;;;14.53;67.37;101915.69;5030166;28;20104;-70
2022/06/13 01:02:21;;;;;;;15.68;6.40;;;;;;;14.49;67.14;101923.00;5030522;28;20532;-70
2022/06/13 01:04:51;;;;;;;14.23;6.80;;;;;;;14.56;67.02;101925.31;5029355;28;20061;-70
2022/06/13 01:07:19;;;;;;;14.38;7.00;;;;;;;14.58;67.25;101916.25;5011995;28;20033;-70
2022/06/13 01:12:32;;;;;;;12.40;6.65;;;;;;;14.60;66.94;101917.03;5028415;28;20087;-70
2022/06/13 01:15:36;;;;;;;19.40;7.00;;;;;;;14.76;66.50;101916.91;5012275;28;20060;-70
2022/06/13 01:18:21;;;;;;;12.50;6.28;;;;;;;14.67;67.48;101907.63;4996494;28;20033;-70
2022/06/13 01:21:08;;;;;;;12.05;6.70;;;;;;;14.77;67.43;101918.66;5012539;28;20503;-70
2022/06/13 01:24:11;;;;;;;14.60;6.45;;;;;;;14.82;66.97;101911.16;5029509;28;20488;-70
2022/06/13 01:27:07;;;;;;;14.77;6.90;;;;;;;14.77;67.46;101915.97;5030960;28;20108;-70
2022/06/13 01:29:52;;;;;;;13.95;7.72;;;;;;;14.68;68.25;101909.38;5030920;28;20046;-70
2022/06/13 01:32:20;;;;;;;14.38;6.88;;;;;;;14.75;67.74;101908.00;5027266;28;20029;-70
2022/06/13 01:35:16;;;;;;;20.50;6.90;;;;;;;14.75;68.08;101913.38;5031683;28;20511;-70
2022/06/13 01:37:57;;;;;;;14.38;7.60;;;;;;;14.80;68.07;101894.34;5027552;28;20506;-70
2022/06/13 01:40:40;;;;;;;12.95;7.22;;;;;;;14.77;68.04;101898.06;5029178;28;20025;-70
2022/06/13 01:43:11;;;;;;;11.93;6.55;;;;;;;14.72;68.95;101891.28;5029039;28;20037;-70
2022/06/13 01:45:58;;;;;;;17.15;6.85;;;;;;;14.72;69.08;101886.78;5030692;28;20388;-69
2022/06/13 01:48:35;;;;;;;14.38;6.95;;;;;;;14.76;67.98;101893.69;5027663;28;20021;-69
2022/06/13 01:51:35;;;;;;;15.80;7.15;;;;;;;14.76;67.37;101895.47;5026010;28;20437;-69
2022/06/13 01:54:00;;;;;;;;;;;;;;;14.92;66.48;101898.91;5030786;28;20068;-70
2022/06/13 01:56:35;;;;;;;18.10;7.35;;;;;;;14.68;67.74;101892.44;5030264;28;19913;-70
2022/06/13 01:59:25;;;;;;;10.80;6.95;;;;;;;14.75;67.91;101899.13;5029071;28;20025;-70
2022/06/13 02:01:59;;;;;;;17.23;7.00;;;;;;;14.72;68.02;101902.00;5010295;28;20022;-70
2022/06/13 02:04:30;;;;;;;13.05;7.32;;;;;;;14.71;68.48;101902.97;5028346;28;20025;-70
2022/06/13 02:07:09;;;;;;;14.18;6.70;;;;;;;14.67;67.58;101888.88;5030276;28;20033;-70
2022/06/13 02:09:43;;;;;;;15.07;6.63;;;;;;;14.60;67.66;101882.22;5029546;28;20041;-70
2022/06/13 02:12:12;;;;;;;17.77;6.53;;;;;;;14.69;67.43;101892.34;5033061;28;20029;-70
2022/06/13 02:14:43;;;;;;;14.05;7.22;;;;;;;14.65;68.39;101888.16;5034625;28;20035;-70
2022/06/13 02:17:21;;;;;;;12.10;7.07;;;;;;;14.78;67.71;101898.94;5033184;28;20063;-70
2022/06/13 02:20:01;;;;;;;13.90;7.07;;;;;;;14.82;67.64;101911.16;5014968;28;20026;-70
2022/06/13 02:22:32;;;;;;;10.82;6.93;;;;;;;14.83;67.45;101907.53;5035771;28;20057;-70
2022/06/13 02:25:10;;;;;;;15.45;7.32;;;;;;;14.81;67.58;101905.91;5036389;28;20021;-70
2022/06/13 02:27:38;;;;;;;14.85;7.93;;;;;;;14.75;68.01;101904.47;5035640;28;20041;-70
2022/06/13 02:30:12;;;;;;;20.50;7.63;;;;;;;14.77;67.89;101900.75;5036277;28;20056;-70
2022/06/13 02:32:55;;;;;;;15.30;7.90;;;;;;;14.76;67.72;101899.03;5036153;28;20025;-70
2022/06/13 02:35:30;;;;;;;19.30;8.20;;;;;;;14.80;67.37;101894.34;5036414;28;20369;-70
2022/06/13 02:38:04;;;;;;;12.77;7.50;;;;;;;14.73;68.60;101901.88;5034937;28;20028;-70
2022/06/13 02:40:35;;;;;;;15.40;7.75;;;;;;;14.72;68.25;101897.50;5035106;28;20028;-70
2022/06/13 02:43:12;;;;;;;17.75;8.13;;;;;;;14.74;68.21;101894.75;5034889;28;20033;-70
2022/06/13 02:45:55;;;;;;;18.00;8.32;;;;;;;14.70;68.02;101886.00;5036153;28;20029;-70
2022/06/13 02:48:27;;;;;;;16.25;8.35;;;;;;;14.73;68.14;101888.50;5034123;28;20025;-70
2022/06/13 02:51:35;;;;;;;16.80;8.65;;;;;;;14.68;67.94;101879.91;5033574;28;20091;-70
2022/06/13 02:54:26;;;;;;;18.27;8.27;;;;;;;14.75;68.04;101891.94;5002070;28;20037;-70
2022/06/13 02:57:25;;;;;;;17.05;8.32;;;;;;;14.70;68.85;101894.03;5018769;28;20025;-70
2022/06/13 02:59:56;;;;;;;;;;;;;;;14.86;66.90;101893.09;5036273;28;20427;-70
2022/06/13 03:02:34;;;;;;;16.70;8.02;;;;;;;14.65;68.91;101880.13;5034007;28;19920;-70
2022/06/13 03:05:13;;;;;;;15.73;8.48;;;;;;;14.67;68.69;101888.88;5032598;28;20047;-70
2022/06/13 03:07:56;;;;;;;18.00;8.52;;;;;;;14.63;69.22;101892.72;5035794;28;20029;-70
2022/06/13 03:10:34;;;;;;;16.05;8.57;;;;;;;14.63;69.44;101884.69;5035852;28;20036;-70
2022/06/13 03:13:09;;;;;;;13.95;8.52;;;;;;;14.57;70.05;101887.78;5017683;28;20025;-70
2022/06/13 03:15:50;;;;;;;11.57;8.23;;;;;;;14.53;69.95;101895.13;5034943;28;20032;-70
2022/06/13 03:18:45;;;;;;;22.63;9.18;;;;;;;14.61;69.57;101891.97;5034144;28;20026;-70
2022/06/13 03:21:14;;;;;;;17.45;8.27;;;;;;;14.55;70.24;101895.03;5017073;28;20021;-70
2022/06/13 03:23:46;;;;;;;19.60;8.65;;;;;;;14.47;70.15;101903.53;5013121;28;20049;-70
2022/06/13 03:26:22;;;;;;;17.63;8.73;;;;;;;14.47;70.00;101891.94;5030207;28;20508;-70
2022/06/13 03:29:19;;;;;;;19.20;8.23;;;;;;;14.47;69.99;101903.53;5030980;28;20026;-70
2022/06/13 03:31:50;;;;;;;18.92;8.82;;;;;;;14.42;70.70;101900.25;5031667;28;20029;-70
2022/06/13 03:34:24;;;;;;;19.40;9.65;;;;;;;14.41;70.61;101898.56;5015358;28;20059;-70
2022/06/13 03:37:04;;;;;;;19.48;9.82;;;;;;;14.32;70.76;101891.97;5030652;28;20075;-70
2022/06/13 03:39:41;;;;;;;;;;;;;;;14.56;69.14;101901.22;5032863;28;20026;-70
2022/06/13 03:42:16;;;;;;;16.60;7.85;;;;;;;14.39;70.91;101907.63;5032728;28;19917;-70
2022/06/13 03:44:58;;;;;;;16.45;8.65;;;;;;;14.29;71.16;101908.22;5031254;28;20021;-70
2022/06/13 03:47:30;;;;;;;13.18;8.35;;;;;;;14.29;71.36;101916.25;5015223;28;20029;-70
2022/06/13 03:50:17;;;;;;;15.85;8.63;;;;;;;14.29;71.10;101918.91;5032408;28;20385;-70
2022/06/13 03:52:48;;;;;;;15.38;9.25;;;;;;;14.13;72.06;101910.09;5013884;28;20559;-70
2022/06/13 03:55:23;;;;;;;18.92;9.13;;;;;;;14.20;71.99;101919.44;5028437;28;20025;-70
2022/06/13 03:58:15;;;;;;;20.95;9.90;;;;;;;14.23;71.85;101924.63;5029697;28;20025;-70
2022/06/13 04:00:57;;;;;;;20.35;9.88;;;;;;;14.13;72.42;101917.25;5031270;28;20063;-70
2022/06/13 04:03:25;;;;;;;18.90;10.13;;;;;;;14.06;72.64;101917.63;5030696;28;20025;-70
2022/06/13 04:05:56;;;;;;;20.17;9.48;;;;;;;14.07;72.74;101921.16;5031890;28;20064;-70
2022/06/13 04:08:22;;;;;;;22.88;9.65;;;;;;;14.01;72.75;101916.19;5031992;28;20120;-70
2022/06/13 04:11:04;;;;;;;23.40;10.00;;;;;;;14.02;72.52;101923.25;5029786;28;20029;-70
2022/06/13 04:13:54;;;;;;;18.95;9.73;;;;;;;14.04;73.24;101926.69;5030330;28;20391;-70
2022/06/13 04:16:31;;;;;;;20.50;9.70;;;;;;;14.05;72.83;101926.59;5029885;28;20035;-70
2022/06/13 04:19:06;;;;;;;18.60;9.30;;;;;;;14.05;72.97;101937.28;5013142;28;20034;-70
2022/06/13 04:21:53;;;;;;;21.65;9.35;;;;;;;14.02;73.05;101928.59;5030947;28;20038;-70
2022/06/13 04:24:23;;;;;;;18.63;9.32;;;;;;;14.02;73.27;101925.94;5031730;28;20081;-70
2022/06/13 04:26:59;;;;;;;17.83;8.75;;;;;;;13.99;73.43;101939.47;5030522;28;20025;-70
2022/06/13 04:29:40;;;;;;;15.05;9.23;;;;;;;13.95;73.46;101935.28;5029209;28;20037;-70
2022/06/13 04:32:12;;;;;;;16.17;9.35;;;;;;;13.82;73.92;101921.75;5031649;28;20021;-70
2022/06/13 04:34:46;;;;;;;15.73;9.05;;;;;;;13.96;73.98;101940.53;5012445;28;20037;-70
2022/06/13 04:37:16;;;;;;;16.45;9.00;;;;;;;13.94;74.04;101938.88;5031092;28;20033;-70
2022/06/13 04:39:44;;;;;;;21.50;9.90;;;;;;;14.04;74.24;101945.44;5013575;28;20481;-70
2022/06/13 04:42:12;;;;;;;19.20;10.13;;;;;;;14.11;74.32;101948.59;5013216;28;20044;-70
2022/06/13 04:44:40;;;;;;;17.60;9.93;;;;;;;14.08;74.32;101955.84;5012428;28;20298;-70
2022/06/13 04:47:07;;;;;;;21.95;10.57;;;;;;;14.19;74.33;101944.50;4996099;28;20036;-70
2022/06/13 04:49:49;;;;;;;21.75;10.05;;;;;;;14.21;73.91;101945.28;5012674;28;20029;-70
2022/06/13 04:52:29;;;;;;;19.10;10.77;;;;;;;14.20;74.50;101948.03;5031290;28;20029;-70
2022/06/13 04:55:01;;;;;;;25.63;11.18;;;;;;;14.13;74.72;101952.91;5027424;28;20480;-70
2022/06/13 04:57:28;;;;;;;17.27;10.10;;;;;;;14.24;74.95;101952.25;5030103;28;20079;-70
2022/06/13 04:59:54;;;;;;;20.20;11.10;;;;;;;14.22;75.31;101949.66;5030251;28;20018;-70
2022/06/13 05:02:33;;;;;;;16.50;10.43;;;;;;;14.26;75.43;101955.69;5028263;28;20116;-70
2022/06/13 05:04:59;;;;;;;21.67;11.07;;;;;;;14.31;76.00;101951.78;5030381;28;20029;-70
2022/06/13 05:07:27;;;;;;;22.40;10.80;;;;;;;14.38;75.71;101954.94;5010181;28;20021;-70
2022/06/13 05:09:59;;;;;;;19.50;11.23;;;;;;;14.49;75.77;101960.47;5027577;28;20040;-70
2022/06/13 05:12:46;;;;;;;22.20;10.93;;;;;;;14.63;74.99;101961.50;5028642;28;20041;-70
2022/06/13 05:15:30;;;;;;;25.17;11.43;;;;;;;14.65;75.44;101968.47;5029896;28;20021;-70
2022/06/13 05:18:16;;;;;;;22.08;11.18;;;;;;;14.78;75.34;101963.22;5027806;28;20057;-70
2022/06/13 05:20:56;;;;;;;21.10;11.13;;;;;;;14.86;75.46;101970.78;5030296;28;20033;-70
2022/06/13 05:24:06;;;;;;;22.98;12.13;;;;;;;14.95;74.58;101964.81;5028936;28;20053;-70
2022/06/13 05:26:32;;;;;;;20.70;10.68;;;;;;;14.93;75.52;101970.25;5030021;28;20029;-70
2022/06/13 05:29:00;;;;;;;23.17;12.27;;;;;;;14.93;75.99;101966.72;5029273;28;20491;-70
2022/06/13 05:31:26;;;;;;;20.35;10.93;;;;;;;14.97;75.90;101957.53;5012447;28;20103;-70
2022/06/13 05:33:56;;;;;;;19.00;10.85;;;;;;;15.05;76.28;101973.13;5029453;28;20026;-70
2022/06/13 05:36:25;;;;;;;23.13;11.57;;;;;;;15.10;75.49;101976.38;5029461;28;20110;-70
2022/06/13 05:38:55;;;;;;;22.80;11.32;;;;;;;15.20;75.27;101985.53;5029533;28;20048;-70
2022/06/13 05:41:23;;;;;;;22.42;11.55;;;;;;;15.22;75.26;101981.81;5026870;28;20057;-70
2022/06/13 05:43:49;;;;;;;22.00;11.77;;;;;;;15.29;75.41;101992.97;5027251;28;20079;-70
2022/06/13 05:46:37;;;;;;;25.45;10.70;;;;;;;15.36;75.01;101991.63;5009156;28;20057;-70
2022/06/13 05:49:04;;;;;;;21.63;11.23;;;;;;;15.42;75.16;102001.97;5027238;28;20116;-70
2022/06/13 05:51:30;;;;;;;21.55;11.07;;;;;;;15.45;75.32;101992.88;5026967;28;20512;-70
2022/06/13 05:54:01;;;;;;;24.42;10.95;;;;;;;15.53;74.69;102003.06;5030039;28;20032;-70
2022/06/13 05:56:26;;;;;;;28.13;12.02;;;;;;;15.54;74.20;101997.63;5011980;28;20185;-70
2022/06/13 05:58:52;;;;;;;23.30;10.63;;;;;;;15.63;75.15;102004.19;5011049;28;20105;-70
2022/06/13 06:01:18;;;;;;;24.65;11.23;;;;;;;15.57;74.98;102008.16;5028397;28;20024;-70
2022/06/13 06:03:47;;;;;;;22.33;9.57;;;;;;;15.60;74.90;102020.50;5006532;28;20037;-70
2022/06/13 06:06:21;;;;;;;30.58;11.90;;;;;;;15.62;75.81;102018.59;5010286;28;20065;-70
2022/06/13 06:08:47;;;;;;;28.70;12.43;;;;;;;15.62;75.21;102019.44;5030100;28;20380;-70
2022/06/13 06:11:13;;;;;;;22.13;10.70;;;;;;;15.70;75.08;102020.78;5030501;28;20029;-70
2022/06/13 06:13:39;;;;;;;23.05;11.38;;;;;;;15.75;75.18;102026.72;5011722;28;20120;-70
2022/06/13 06:16:05;;;;;;;22.83;11.00;;;;;;;15.77;75.14;102030.16;5011774;28;20030;-70
2022/06/13 06:18:31;;;;;;;24.38;10.73;;;;;;;15.83;74.27;102038.66;5008701;28;20057;-70
2022/06/13 06:20:57;;;;;;;26.73;10.27;;;;;;;15.85;73.20;102034.06;5029784;28;20028;-70
2022/06/13 06:23:26;;;;;;;23.30;9.88;;;;;;;15.92;73.05;102039.00;5011193;28;20050;-70
2022/06/13 06:25:53;;;;;;;25.63;9.88;;;;;;;15.96;72.71;102035.16;5028221;28;20077;-70
2022/06/13 06:28:26;;;;;;;22.80;9.15;;;;;;;15.99;72.62;102038.47;5026781;28;20131;-70
2022/06/13 06:30:53;;;;;;;18.00;8.35;;;;;;;16.07;72.22;102035.28;5010495;28;20056;-70
2022/06/13 06:33:20;;;;;;;20.35;8.63;;;;;;;16.11;70.89;102040.34;5029294;28;20036;-70
2022/06/13 06:35:47;;;;;;;20.45;8.15;;;;;;;16.07;69.62;102044.19;5011575;28;20026;-70
2022/06/13 06:38:13;;;;;;;18.02;7.00;;;;;;;15.96;69.91;102052.09;4995685;28;20056;-70
2022/06/13 06:40:38;;;;;;;16.98;6.97;;;;;;;15.82;69.70;102042.28;5011174;28;20061;-70
2022/06/13 06:43:04;;;;;;;15.60;6.32;;;;;;;15.85;69.85;102060.00;5011869;28;20112;-70
2022/06/13 06:45:29;;;;;;;17.33;6.63;;;;;;;15.89;69.77;102057.03;4993496;28;20508;-70
2022/06/13 06:47:57;;;;;;;15.02;5.85;;;;;;;16.04;69.62;102054.28;5025727;28;20099;-70
2022/06/13 06:50:29;;;;;;;13.52;5.07;;;;;;;16.21;68.39;102056.69;5030291;28;20040;-70
2022/06/13 06:52:56;;;;;;;13.75;5.38;;;;;;;16.30;66.64;102065.97;5011844;28;20032;-70
2022/06/13 07:01:01;;;;;;;15.65;4.63;;;;;;;16.90;63.94;102076.16;5014994;28;20040;-70
2022/06/13 07:03:27;;;;;;;12.98;5.43;;;;;;;16.91;63.49;102069.81;5031174;28;20026;-70
2022/06/13 07:05:53;;;;;;;10.40;4.22;;;;;;;16.84;63.56;102073.03;5010364;28;20090;-70
2022/06/13 07:08:22;;;;;;;10.73;4.45;;;;;;;16.97;63.20;102073.88;5011191;28;20041;-70
2022/06/13 07:10:50;;;;;;;12.13;4.35;;;;;;;17.12;61.86;102078.19;5015532;28;20485;-70
2022/06/13 07:13:35;;;;;;;14.15;4.32;;;;;;;17.30;60.41;102072.47;4969130;28;20058;-70
2022/06/13 07:16:01;;;;;;;11.10;3.92;;;;;;;17.32;60.15;102070.50;4933497;28;20039;-70
2022/06/13 07:18:26;;;;;;;13.30;3.58;;;;;;;17.37;58.18;102071.91;4926748;28;20395;-70
2022/06/13 07:20:52;;;;;;;10.05;3.67;;;;;;;17.38;58.88;102070.94;4953317;28;20040;-71
2022/06/13 07:23:19;;;;;;;9.02;3.67;;;;;;;17.61;59.34;102071.94;4950082;28;20070;-71
2022/06/13 07:25:44;;;;;;;10.40;3.53;;;;;;;17.62;57.50;102076.38;4942566;28;20073;-70
2022/06/13 07:28:09;;;;;;;10.60;3.65;;;;;;;17.68;58.25;102073.22;4951714;28;20134;-70
2022/06/13 07:30:36;;;;;;;9.15;3.30;;;;;;;17.88;57.58;102077.16;4938647;28;20435;-70
2022/06/13 07:33:04;;;;;;;8.57;3.22;;;;;;;18.00;57.11;102078.09;4936556;28;20047;-70
2022/06/13 07:35:30;;;;;;;8.07;3.60;;;;;;;18.01;56.62;102082.50;4953709;28;20105;-70
2022/06/13 07:40:44;;;;;;;8.77;3.20;;;;;;;18.07;56.88;102083.88;4947966;28;20050;-70
2022/06/13 07:43:23;;;;;;;9.98;3.65;;;;;;;18.39;55.72;102086.81;4961824;28;20023;-70
2022/06/13 07:45:51;;;;;;;7.05;2.95;;;;;;;18.41;54.30;102081.28;5001281;28;20032;-71
2022/06/13 07:48:18;;;;;;;10.07;3.10;;;;;;;18.35;56.09;102086.19;5011180;28;20113;-70
2022/06/13 07:50:43;;;;;;;9.70;3.45;;;;;;;18.39;56.66;102084.97;5010707;28;20025;-70
2022/06/13 07:53:09;;;;;;;9.60;3.90;;;;;;;18.38;55.41;102095.84;5010547;28;20033;-70
2022/06/13 07:55:36;;;;;;;14.52;4.18;;;;;;;18.42;56.28;102066.88;5011875;28;20037;-70
2022/06/13 07:58:01;;;;;;;9.90;3.50;;;;;;;18.66;55.04;102096.44;5006306;28;20112;-70
2022/06/13 08:00:36;;;;;;;16.40;4.70;;;;;;;18.63;55.18;102097.53;5011677;28;20117;-70
2022/06/13 08:03:07;;;;;;;11.57;4.85;;;;;;;18.66;53.40;102108.09;5012332;28;20029;-71
2022/06/13 08:05:34;;;;;;;10.38;3.63;;;;;;;18.80;53.31;102099.81;5012587;28;20022;-70
2022/06/13 08:07:59;;;;;;;8.85;3.45;;;;;;;19.01;53.59;102107.22;5011052;28;20412;-71
2022/06/13 08:10:25;;;;;;;9.80;3.40;;;;;;;19.09;54.08;102111.97;4984987;28;20042;-70
2022/06/13 08:12:50;;;;;;;8.30;3.58;;;;;;;19.37;52.51;102116.03;5005451;28;20080;-70
2022/06/13 08:15:16;;;;;;;7.00;3.17;;;;;;;19.32;53.05;102129.03;5007723;28;20027;-70
2022/06/13 08:17:42;;;;;;;10.23;4.15;;;;;;;19.25;52.52;102124.13;5011191;28;20422;-70
2022/06/13 08:20:09;;;;;;;10.82;3.58;;;;;;;19.44;51.15;102122.66;5009255;28;20033;-70
2022/06/13 08:22:44;;;;;;;9.48;3.50;;;;;;;19.56;49.88;102128.91;5015184;28;20045;-71
2022/06/13 08:25:20;;;;;;;6.38;2.88;;;;;;;19.69;48.80;102122.44;5028371;28;20451;-70
2022/06/13 08:27:46;;;;;;;7.70;2.80;;;;;;;19.56;48.60;102129.78;5029024;28;20075;-71
2022/06/13 08:30:12;;;;;;;10.15;2.85;;;;;;;19.32;50.27;102135.28;5025439;28;20033;-70
2022/06/13 08:32:37;;;;;;;7.07;2.92;;;;;;;19.08;49.08;102138.09;4996445;28;20033;-70
2022/06/13 08:35:05;;;;;;;11.45;2.95;;;;;;;18.68;50.56;102111.53;5011265;28;20052;-70
2022/06/13 08:37:31;;;;;;;8.98;3.20;;;;;;;18.65;51.14;102143.22;5013438;28;20033;-70
2022/06/13 08:39:57;;;;;;;5.28;2.58;;;;;;;18.52;52.35;102137.91;5012979;28;20052;-70
2022/06/13 08:42:33;;;;;;;11.50;3.60;;;;;;;18.77;53.64;102143.19;5030353;28;20104;-70
2022/06/13 08:45:29;;;;;;;8.70;3.13;;;;;;;19.16;54.33;102137.50;5012393;28;20478;-71
2022/06/13 08:48:30;;;;;;;8.65;2.90;;;;;;;19.57;53.59;102139.59;5030282;28;20050;-70
2022/06/13 08:51:07;;;;;;;10.10;2.92;;;;;;;19.80;51.59;102137.75;5032130;28;20392;-71
2022/06/13 08:53:44;;;;;;;8.07;2.45;;;;;;;20.05;49.17;102138.44;5032144;28;20075;-70
2022/06/13 08:56:14;;;;;;;10.32;2.95;;;;;;;20.09;49.39;102143.47;5031931;28;20025;-70
2022/06/13 08:58:53;;;;;;;8.73;3.05;;;;;;;20.40;48.18;102138.19;5030841;28;20044;-71
2022/06/13 09:01:41;;;;;;;9.25;2.72;;;;;;;20.32;47.62;102146.06;5013947;28;20032;-71
2022/06/13 09:04:17;;;;;;;9.27;2.67;;;;;;;20.02;47.45;102153.03;5031877;28;20021;-71
2022/06/13 09:07:13;;;;;;;9.75;2.80;;;;;;;19.99;47.30;102153.31;5031946;28;20033;-70
2022/06/13 09:09:39;;;;;;;6.50;2.35;;;;;;;20.05;48.20;102160.03;5013373;28;20038;-71
2022/06/13 09:12:08;;;;;;;8.25;2.55;;;;;;;19.83;46.26;102152.84;5031624;28;20037;-70
2022/06/13 09:14:58;;;;;;;9.60;2.28;;;;;;;19.79;47.18;102160.31;5031628;28;20025;-71
2022/06/13 09:17:26;;;;;;;6.82;2.10;;;;;;;19.65;47.07;102161.47;5029151;28;20037;-70
2022/06/13 09:20:10;;;;;;;6.30;2.33;;;;;;;19.51;47.11;102173.31;5029969;28;20056;-70
2022/06/13 09:22:45;;;;;;;6.38;2.20;;;;;;;19.81;46.23;102171.88;5029780;28;20583;-71
2022/06/13 09:25:13;;;;;;;5.57;2.10;;;;;;;20.01;45.46;102169.41;5029524;28;20067;-70
2022/06/13 09:27:49;;;;;;;6.88;2.15;;;;;;;19.80;45.95;102172.00;5030682;28;20418;-71
2022/06/13 09:30:19;;;;;;;5.60;2.13;;;;;;;19.43;47.33;102180.31;5032016;28;20018;-70
2022/06/13 09:32:54;;;;;;;4.70;2.10;;;;;;;19.44;48.15;102173.91;5030759;28;20033;-70
2022/06/13 09:35:33;;;;;;;3.65;1.80;;;;;;;19.58;47.98;102184.47;5013099;28;20053;-70
2022/06/13 09:38:03;;;;;;;3.60;1.65;;;;;;;19.58;47.02;102183.63;5031170;28;20052;-71
2022/06/13 09:40:35;;;;;;;6.18;2.10;;;;;;;19.61;45.81;102191.47;5031140;28;20061;-70
2022/06/13 09:43:13;;;;;;;5.05;1.70;;;;;;;19.52;45.43;102196.63;5030745;28;20476;-71
2022/06/13 09:45:46;;;;;;;5.53;1.90;;;;;;;19.45;46.97;102198.09;5029687;28;20388;-70
2022/06/13 09:48:21;;;;;;;8.23;3.28;;;;;;;19.25;49.62;102198.81;5011044;28;20117;-70
2022/06/13 09:51:24;;;;;;;10.32;3.50;;;;;;;19.13;52.10;102189.84;5031698;28;20032;-70
2022/06/13 09:54:03;;;;;;;5.28;2.25;;;;;;;19.06;51.47;102196.72;5011095;28;20039;-70
2022/06/13 09:56:45;;;;;;;9.30;2.80;;;;;;;19.01;51.19;102205.13;5031211;28;20029;-70
2022/06/13 09:59:38;;;;;;;6.90;3.85;;;;;;;19.05;51.31;102201.22;5030032;28;20384;-70
2022/06/13 10:02:20;;;;;;;6.25;3.70;;;;;;;18.93;51.69;102198.63;5031137;28;20022;-71
2022/06/13 10:05:04;;;;;;;7.82;3.40;;;;;;;19.07;51.32;102201.09;5031002;28;20025;-72
2022/06/13 10:07:48;;;;;;;8.05;3.22;;;;;;;19.15;49.85;102203.19;5030588;28;20029;-71
2022/06/13 10:10:33;;;;;;;8.98;3.17;;;;;;;19.28;49.72;102203.97;5013383;28;20047;-70
2022/06/13 10:13:16;;;;;;;6.97;2.78;;;;;;;19.37;48.89;102210.47;5030385;28;20021;-69
2022/06/13 10:15:54;;;;;;;8.32;2.38;;;;;;;19.62;48.33;102212.09;5031065;28;20112;-69
2022/06/13 10:18:41;;;;;;;5.50;1.80;;;;;;;19.71;47.55;102203.31;4994138;28;20555;-70
2022/06/13 10:21:36;;;;;;;5.40;1.92;;;;;;;19.98;48.15;102197.50;5029014;28;20083;-70
2022/06/13 10:24:27;;;;;;;5.07;1.98;;;;;;;20.28;47.49;102217.59;5019932;28;20132;-70
2022/06/13 10:27:04;;;;;;;5.13;2.03;;;;;;;20.47;46.66;102208.81;5027682;28;20407;-70
2022/06/13 10:29:57;;;;;;;8.93;2.80;;;;;;;20.66;46.52;102211.72;5030062;28;20476;-70
2022/06/13 10:32:23;;;;;;;9.27;4.82;;;;;;;20.58;46.49;102200.69;5029121;28;20029;-70
2022/06/13 10:35:12;;;;;;;9.82;4.15;;;;;;;20.67;47.88;102204.47;5015526;28;20032;-70
2022/06/13 10:38:00;;;;;;;6.60;2.78;;;;;;;20.73;47.37;102210.19;5034724;28;20017;-70
2022/06/13 10:40:26;;;;;;;7.07;3.27;;;;;;;20.94;45.42;102204.84;5034395;28;20037;-70
2022/06/13 10:42:52;;;;;;;6.65;2.60;;;;;;;21.15;45.14;102214.78;5033426;28;20037;-70
2022/06/13 10:45:18;;;;;;;9.38;2.70;;;;;;;20.92;42.51;102206.81;5034505;28;20071;-70
2022/06/13 10:47:58;;;;;;;7.28;2.58;;;;;;;20.91;43.35;102183.44;5034601;28;20029;-70
2022/06/13 10:50:35;;;;;;;4.07;2.47;;;;;;;21.41;44.93;102215.25;5033901;28;20036;-70
2022/06/13 10:53:07;;;;;;;8.17;2.20;;;;;;;21.43;43.85;102207.88;5034125;28;20527;-71
2022/06/13 10:55:41;;;;;;;5.90;2.45;;;;;;;21.52;44.15;102213.31;5033755;28;20346;-70
2022/06/13 10:58:16;;;;;;;4.57;1.80;;;;;;;21.69;43.83;102205.56;5034129;28;20486;-70
2022/06/13 11:01:04;;;;;;;8.13;2.58;;;;;;;21.95;42.69;102211.38;5034380;28;20152;-69
2022/06/13 11:03:29;;;;;;;10.07;2.90;;;;;;;21.65;43.10;102209.53;5034115;28;20503;-70
2022/06/13 11:06:01;;;;;;;5.63;3.25;;;;;;;21.44;43.34;102212.28;5016135;28;20037;-70
2022/06/13 11:08:30;;;;;;;8.73;3.17;;;;;;;21.33;42.70;102203.22;5033688;28;20025;-70
2022/06/13 11:11:03;;;;;;;5.22;1.83;;;;;;;21.71;43.48;102225.25;5033481;28;20033;-70
2022/06/13 11:13:34;;;;;;;7.18;1.70;;;;;;;21.62;40.87;102224.22;5033660;28;20036;-70
2022/06/13 11:24:41;;;;;;;6.85;1.67;;;;;;;21.09;41.96;102221.59;5033959;28;20045;-70
2022/06/13 11:30:31;;;;;;;3.75;1.67;;;;;;;21.37;41.79;102221.94;5033907;28;20035;-72
2022/06/13 11:33:00;;;;;;;7.93;1.88;;;;;;;21.63;41.64;102228.63;5033468;28;20104;-70
2022/06/13 11:35:31;;;;;;;5.65;1.50;;;;;;;21.77;40.47;102220.16;5033594;28;20061;-69
2022/06/13 11:38:18;;;;;;;3.38;1.55;;;;;;;22.13;41.38;102225.13;5012194;28;20115;-73
2022/06/13 11:41:17;;;;;;;4.82;1.55;;;;;;;22.58;39.87;102222.78;5015421;28;20052;-72
2022/06/13 11:43:46;;;;;;;6.30;1.63;;;;;;;22.48;38.49;102218.38;5029988;28;20056;-72
2022/06/13 11:46:35;;;;;;;7.43;1.57;;;;;;;22.26;39.15;102224.88;5013860;28;20033;-71
2022/06/13 11:49:05;;;;;;;4.85;1.77;;;;;;;21.76;40.53;102221.13;4987835;28;20443;-71
2022/06/13 11:51:42;;;;;;;5.00;1.55;;;;;;;21.59;41.56;102229.91;5033226;28;20025;-72
2022/06/13 11:54:37;;;;;;;9.80;2.03;;;;;;;21.47;40.93;102226.44;5014164;28;20026;-72
2022/06/13 11:57:15;;;;;;;7.57;2.05;;;;;;;21.56;39.50;102222.06;5019013;28;20048;-71
2022/06/13 11:59:47;;;;;;;4.18;1.60;;;;;;;21.96;38.46;102223.91;5013962;28;20076;-72
2022/06/13 12:02:22;;;;;;;2.63;1.30;;;;;;;22.47;38.42;102220.19;5015505;28;20028;-72
2022/06/13 12:04:48;;;;;;;3.92;1.40;;;;;;;23.06;39.08;102219.25;5032204;28;20038;-71
2022/06/13 12:07:31;;;;;;;4.70;1.45;;;;;;;23.58;37.19;102229.69;5015134;28;20362;-70
2022/06/13 12:09:59;;;;;;;6.07;1.20;;;;;;;24.39;34.51;102227.16;5030226;28;20075;-70
2022/06/13 12:12:26;;;;;;;9.00;1.52;;;;;;;24.57;34.34;102226.34;5032007;28;20052;-70
2022/06/13 12:14:52;;;;;;;5.82;1.60;;;;;;;24.14;34.23;102230.59;5033034;28;20411;-70